sensor_id;sensor_type;location;lat;lon;timestamp;pressure;altitude;pressure_sealevel;temperature;humidity
63739;BME280;68816;45.558;10.070;2023-07-24T00:00:09;99665.59;;;29.57;46.30
63739;BME280;68816;45.558;10.070;2023-07-24T00:02:35;99667.91;;;29.51;46.07
63739;BME280;68816;45.558;10.070;2023-07-24T00:05:00;99664.28;;;29.54;45.77
63739;BME280;68816;45.558;10.070;2023-07-24T00:07:26;99663.16;;;29.39;46.12
63739;BME280;68816;45.558;10.070;2023-07-24T00:09:51;99660.00;;;29.45;46.12
63739;BME280;68816;45.558;10.070;2023-07-24T00:12:17;99655.94;;;29.30;45.98
63739;BME280;68816;45.558;10.070;2023-07-24T00:14:43;99652.94;;;29.38;46.29
63739;BME280;68816;45.558;10.070;2023-07-24T00:17:08;99657.34;;;29.36;46.15
63739;BME280;68816;45.558;10.070;2023-07-24T00:19:34;99655.25;;;29.33;46.60
63739;BME280;68816;45.558;10.070;2023-07-24T00:21:59;99643.19;;;29.24;45.89
63739;BME280;68816;45.558;10.070;2023-07-24T00:24:24;99643.19;;;29.24;46.01
63739;BME280;68816;45.558;10.070;2023-07-24T00:26:50;99640.19;;;29.17;45.57
63739;BME280;68816;45.558;10.070;2023-07-24T00:29:15;99642.00;;;29.25;46.58
63739;BME280;68816;45.558;10.070;2023-07-24T00:31:41;99637.06;;;29.22;45.36
63739;BME280;68816;45.558;10.070;2023-07-24T00:34:06;99646.22;;;29.31;45.47
63739;BME280;68816;45.558;10.070;2023-07-24T00:36:32;99641.72;;;29.30;46.78
63739;BME280;68816;45.558;10.070;2023-07-24T00:38:57;99648.56;;;29.10;47.94
63739;BME280;68816;45.558;10.070;2023-07-24T00:41:23;99648.84;;;29.05;47.16
63739;BME280;68816;45.558;10.070;2023-07-24T00:43:48;99643.47;;;29.19;45.85
63739;BME280;68816;45.558;10.070;2023-07-24T00:46:14;99647.44;;;29.14;46.59
63739;BME280;68816;45.558;10.070;2023-07-24T00:48:40;99651.41;;;29.10;46.69
63739;BME280;68816;45.558;10.070;2023-07-24T00:51:06;99639.94;;;29.06;46.73
63739;BME280;68816;45.558;10.070;2023-07-24T00:53:32;99643.19;;;29.24;46.75
63739;BME280;68816;45.558;10.070;2023-07-24T00:55:57;99635.81;;;29.04;46.76
63739;BME280;68816;45.558;10.070;2023-07-24T00:58:23;99647.81;;;29.13;46.60
63739;BME280;68816;45.558;10.070;2023-07-24T01:00:49;99640.75;;;29.07;46.62
63739;BME280;68816;45.558;10.070;2023-07-24T01:03:15;99636.28;;;29.06;45.77
63739;BME280;68816;45.558;10.070;2023-07-24T01:05:41;99638.47;;;28.96;46.80
63739;BME280;68816;45.558;10.070;2023-07-24T01:08:07;99630.75;;;28.97;46.77
63739;BME280;68816;45.558;10.070;2023-07-24T01:10:32;99629.63;;;29.02;46.62
63739;BME280;68816;45.558;10.070;2023-07-24T01:13:15;99628.72;;;28.97;47.84
63739;BME280;68816;45.558;10.070;2023-07-24T01:15:49;99619.44;;;29.00;47.22
63739;BME280;68816;45.558;10.070;2023-07-24T01:18:17;99624.03;;;28.89;47.59
63739;BME280;68816;45.558;10.070;2023-07-24T01:20:51;99625.53;;;28.83;46.93
63739;BME280;68816;45.558;10.070;2023-07-24T01:26:16;99621.03;;;28.98;46.67
63739;BME280;68816;45.558;10.070;2023-07-24T01:28:41;99626.16;;;28.92;46.73
63739;BME280;68816;45.558;10.070;2023-07-24T01:31:07;99620.56;;;28.80;46.81
63739;BME280;68816;45.558;10.070;2023-07-24T01:33:33;99620.38;;;28.73;47.37
63739;BME280;68816;45.558;10.070;2023-07-24T01:36:02;99629.38;;;28.91;47.50
63739;BME280;68816;45.558;10.070;2023-07-24T01:38:31;99618.91;;;28.64;47.49
63739;BME280;68816;45.558;10.070;2023-07-24T01:40:57;99621.75;;;28.79;48.03
63739;BME280;68816;45.558;10.070;2023-07-24T01:43:24;99619.81;;;28.83;47.81
63739;BME280;68816;45.558;10.070;2023-07-24T01:45:52;99624.63;;;28.79;48.15
63739;BME280;68816;45.558;10.070;2023-07-24T01:48:18;99627.38;;;28.91;47.92
63739;BME280;68816;45.558;10.070;2023-07-24T01:50:43;99628.47;;;28.87;47.58
63739;BME280;68816;45.558;10.070;2023-07-24T01:53:09;99634.91;;;28.99;47.84
63739;BME280;68816;45.558;10.070;2023-07-24T01:55:35;99633.31;;;29.02;48.09
63739;BME280;68816;45.558;10.070;2023-07-24T01:58:00;99618.72;;;29.04;48.12
63739;BME280;68816;45.558;10.070;2023-07-24T02:00:26;99621.56;;;29.04;48.90
63739;BME280;68816;45.558;10.070;2023-07-24T02:02:51;99623.88;;;28.98;48.66
63739;BME280;68816;45.558;10.070;2023-07-24T02:05:17;99608.44;;;28.99;47.16
63739;BME280;68816;45.558;10.070;2023-07-24T02:07:42;99606.03;;;29.01;48.05
63739;BME280;68816;45.558;10.070;2023-07-24T02:10:08;99596.94;;;28.95;47.57
63739;BME280;68816;45.558;10.070;2023-07-24T02:12:33;99597.06;;;28.99;48.45
63739;BME280;68816;45.558;10.070;2023-07-24T02:14:59;99600.63;;;28.96;48.91
63739;BME280;68816;45.558;10.070;2023-07-24T02:17:25;99594.69;;;28.85;48.01
63739;BME280;68816;45.558;10.070;2023-07-24T02:19:50;99584.13;;;28.86;48.71
63739;BME280;68816;45.558;10.070;2023-07-24T02:22:16;99583.47;;;28.92;47.27
63739;BME280;68816;45.558;10.070;2023-07-24T02:24:41;99584.72;;;28.95;48.00
63739;BME280;68816;45.558;10.070;2023-07-24T02:27:07;99573.72;;;28.93;48.14
63739;BME280;68816;45.558;10.070;2023-07-24T02:29:33;99568.59;;;28.83;48.19
63739;BME280;68816;45.558;10.070;2023-07-24T02:31:59;99554.56;;;28.75;48.54
63739;BME280;68816;45.558;10.070;2023-07-24T02:34:24;99555.66;;;28.70;48.66
63739;BME280;68816;45.558;10.070;2023-07-24T02:36:55;99553.44;;;28.64;48.90
63739;BME280;68816;45.558;10.070;2023-07-24T02:39:20;99555.09;;;28.65;48.72
63739;BME280;68816;45.558;10.070;2023-07-24T02:41:47;99541.25;;;28.63;48.88
63739;BME280;68816;45.558;10.070;2023-07-24T02:44:13;99541.03;;;28.72;48.98
63739;BME280;68816;45.558;10.070;2023-07-24T02:46:38;99541.22;;;28.79;48.75
63739;BME280;68816;45.558;10.070;2023-07-24T02:49:03;99533.31;;;28.72;48.79
63739;BME280;68816;45.558;10.070;2023-07-24T02:51:30;99532.69;;;28.79;48.78
63739;BME280;68816;45.558;10.070;2023-07-24T02:53:55;99530.75;;;28.67;49.09
63739;BME280;68816;45.558;10.070;2023-07-24T02:56:21;99513.69;;;28.83;48.41
63739;BME280;68816;45.558;10.070;2023-07-24T02:58:46;99509.72;;;28.72;49.17
63739;BME280;68816;45.558;10.070;2023-07-24T03:01:12;99509.03;;;28.59;48.72
63739;BME280;68816;45.558;10.070;2023-07-24T03:03:39;99520.19;;;28.68;48.99
63739;BME280;68816;45.558;10.070;2023-07-24T03:06:05;99525.00;;;28.64;49.19
63739;BME280;68816;45.558;10.070;2023-07-24T03:08:31;99541.53;;;28.58;49.71
63739;BME280;68816;45.558;10.070;2023-07-24T03:10:57;99539.59;;;28.31;50.36
63739;BME280;68816;45.558;10.070;2023-07-24T03:13:22;99538.56;;;28.54;50.12
63739;BME280;68816;45.558;10.070;2023-07-24T03:15:52;99540.97;;;28.37;49.87
63739;BME280;68816;45.558;10.070;2023-07-24T03:18:19;99537.50;;;28.59;49.86
63739;BME280;68816;45.558;10.070;2023-07-24T03:20:44;99546.94;;;28.63;49.45
63739;BME280;68816;45.558;10.070;2023-07-24T03:23:10;99534.66;;;28.59;49.60
63739;BME280;68816;45.558;10.070;2023-07-24T03:25:35;99543.06;;;28.55;50.92
63739;BME280;68816;45.558;10.070;2023-07-24T03:28:01;99546.47;;;28.61;49.92
63739;BME280;68816;45.558;10.070;2023-07-24T03:30:27;99550.44;;;28.41;50.14
63739;BME280;68816;45.558;10.070;2023-07-24T03:32:52;99562.00;;;28.48;50.41
63739;BME280;68816;45.558;10.070;2023-07-24T03:35:18;99569.63;;;28.59;49.35
63739;BME280;68816;45.558;10.070;2023-07-24T03:37:43;99569.97;;;28.58;49.36
63739;BME280;68816;45.558;10.070;2023-07-24T03:40:09;99584.78;;;28.48;49.12
63739;BME280;68816;45.558;10.070;2023-07-24T03:42:34;99572.25;;;28.37;49.47
63739;BME280;68816;45.558;10.070;2023-07-24T03:45:00;99573.38;;;28.48;49.46
63739;BME280;68816;45.558;10.070;2023-07-24T03:47:25;99566.31;;;28.42;49.54
63739;BME280;68816;45.558;10.070;2023-07-24T03:49:51;99571.16;;;28.26;49.90
63739;BME280;68816;45.558;10.070;2023-07-24T03:52:16;99576.28;;;28.20;50.03
63739;BME280;68816;45.558;10.070;2023-07-24T03:54:42;99554.00;;;28.38;49.46
63739;BME280;68816;45.558;10.070;2023-07-24T03:57:08;99552.63;;;28.32;49.43
63739;BME280;68816;45.558;10.070;2023-07-24T03:59:33;99554.78;;;28.07;49.92
63739;BME280;68816;45.558;10.070;2023-07-24T04:01:59;99551.72;;;28.28;50.42
63739;BME280;68816;45.558;10.070;2023-07-24T04:04:24;99536.94;;;28.53;49.93
63739;BME280;68816;45.558;10.070;2023-07-24T04:06:50;99536.84;;;28.50;50.25
63739;BME280;68816;45.558;10.070;2023-07-24T04:09:15;99544.75;;;28.41;50.52
63739;BME280;68816;45.558;10.070;2023-07-24T04:11:44;99551.88;;;28.50;51.13
63739;BME280;68816;45.558;10.070;2023-07-24T04:14:10;99573.53;;;28.55;50.71
63739;BME280;68816;45.558;10.070;2023-07-24T04:16:35;99572.00;;;28.57;51.25
63739;BME280;68816;45.558;10.070;2023-07-24T04:19:02;99559.78;;;28.57;50.46
63739;BME280;68816;45.558;10.070;2023-07-24T04:21:27;99564.03;;;28.47;51.33
63739;BME280;68816;45.558;10.070;2023-07-24T04:23:53;99560.16;;;28.40;51.59
63739;BME280;68816;45.558;10.070;2023-07-24T04:26:18;99564.38;;;28.46;51.19
63739;BME280;68816;45.558;10.070;2023-07-24T04:28:43;99583.66;;;28.52;50.73
63739;BME280;68816;45.558;10.070;2023-07-24T04:31:09;99608.88;;;28.54;50.64
63739;BME280;68816;45.558;10.070;2023-07-24T04:33:34;99626.22;;;28.49;50.39
63739;BME280;68816;45.558;10.070;2023-07-24T04:36:00;99635.66;;;28.37;50.55
63739;BME280;68816;45.558;10.070;2023-07-24T04:38:25;99642.19;;;28.38;50.37
63739;BME280;68816;45.558;10.070;2023-07-24T04:40:51;99645.22;;;28.60;50.66
63739;BME280;68816;45.558;10.070;2023-07-24T04:43:16;99638.25;;;28.42;51.11
63739;BME280;68816;45.558;10.070;2023-07-24T04:45:42;99639.53;;;28.45;51.95
63739;BME280;68816;45.558;10.070;2023-07-24T04:48:07;99633.84;;;28.45;50.31
63739;BME280;68816;45.558;10.070;2023-07-24T04:50:33;99624.41;;;28.72;51.69
63739;BME280;68816;45.558;10.070;2023-07-24T04:52:58;99609.84;;;28.74;50.91
63739;BME280;68816;45.558;10.070;2023-07-24T04:55:24;99595.09;;;28.72;51.00
63739;BME280;68816;45.558;10.070;2023-07-24T04:57:50;99593.91;;;28.73;51.05
63739;BME280;68816;45.558;10.070;2023-07-24T05:00:16;99572.19;;;28.80;50.47
63739;BME280;68816;45.558;10.070;2023-07-24T05:02:41;99560.50;;;28.85;50.77
63739;BME280;68816;45.558;10.070;2023-07-24T05:05:07;99552.16;;;28.92;49.63
63739;BME280;68816;45.558;10.070;2023-07-24T05:07:32;99563.78;;;29.03;48.95
63739;BME280;68816;45.558;10.070;2023-07-24T05:09:58;99555.94;;;29.16;49.64
63739;BME280;68816;45.558;10.070;2023-07-24T05:12:24;99560.75;;;29.12;48.26
63739;BME280;68816;45.558;10.070;2023-07-24T05:14:50;99579.50;;;28.66;49.65
63739;BME280;68816;45.558;10.070;2023-07-24T05:17:15;99605.44;;;28.76;49.12
63739;BME280;68816;45.558;10.070;2023-07-24T05:19:41;99622.13;;;28.46;50.00
63739;BME280;68816;45.558;10.070;2023-07-24T05:22:06;99630.91;;;28.73;50.04
63739;BME280;68816;45.558;10.070;2023-07-24T05:24:33;99618.91;;;28.79;49.72
63739;BME280;68816;45.558;10.070;2023-07-24T05:26:58;99599.53;;;28.85;50.82
63739;BME280;68816;45.558;10.070;2023-07-24T05:29:23;99577.78;;;28.92;49.69
63739;BME280;68816;45.558;10.070;2023-07-24T05:31:49;99570.16;;;28.81;49.75
63739;BME280;68816;45.558;10.070;2023-07-24T05:34:14;99551.34;;;28.76;49.61
63739;BME280;68816;45.558;10.070;2023-07-24T05:36:40;99520.16;;;28.99;49.82
63739;BME280;68816;45.558;10.070;2023-07-24T05:39:06;99497.16;;;29.08;49.52
63739;BME280;68816;45.558;10.070;2023-07-24T05:41:32;99496.72;;;29.06;50.07
63739;BME280;68816;45.558;10.070;2023-07-24T05:43:57;99498.69;;;29.21;49.64
63739;BME280;68816;45.558;10.070;2023-07-24T05:46:22;99493.88;;;29.25;49.40
63739;BME280;68816;45.558;10.070;2023-07-24T05:48:48;99488.84;;;29.18;49.09
63739;BME280;68816;45.558;10.070;2023-07-24T05:51:14;99492.97;;;29.21;48.26
63739;BME280;68816;45.558;10.070;2023-07-24T05:53:39;99481.94;;;29.35;48.55
63739;BME280;68816;45.558;10.070;2023-07-24T05:56:04;99483.56;;;29.36;48.53
63739;BME280;68816;45.558;10.070;2023-07-24T05:58:30;99485.03;;;29.30;48.70
63739;BME280;68816;45.558;10.070;2023-07-24T06:00:55;99469.16;;;29.48;48.31
63739;BME280;68816;45.558;10.070;2023-07-24T06:03:22;99475.88;;;29.59;48.55
63739;BME280;68816;45.558;10.070;2023-07-24T06:05:52;99483.06;;;29.72;47.51
63739;BME280;68816;45.558;10.070;2023-07-24T06:08:18;99470.28;;;29.86;47.71
63739;BME280;68816;45.558;10.070;2023-07-24T06:10:46;99467.44;;;29.86;47.80
63739;BME280;68816;45.558;10.070;2023-07-24T06:13:11;99469.31;;;29.97;47.89
63739;BME280;68816;45.558;10.070;2023-07-24T06:15:37;99472.03;;;30.13;46.99
63739;BME280;68816;45.558;10.070;2023-07-24T06:18:02;99467.75;;;30.23;46.71
63739;BME280;68816;45.558;10.070;2023-07-24T06:20:28;99476.34;;;30.26;46.80
63739;BME280;68816;45.558;10.070;2023-07-24T06:22:53;99489.63;;;30.41;47.35
63739;BME280;68816;45.558;10.070;2023-07-24T06:25:19;99501.19;;;30.48;46.74
63739;BME280;68816;45.558;10.070;2023-07-24T06:27:44;99500.88;;;30.53;46.66
63739;BME280;68816;45.558;10.070;2023-07-24T06:30:10;99493.13;;;30.54;46.00
63739;BME280;68816;45.558;10.070;2023-07-24T06:32:35;99480.22;;;30.64;45.82
63739;BME280;68816;45.558;10.070;2023-07-24T06:35:00;99475.47;;;30.71;46.76
63739;BME280;68816;45.558;10.070;2023-07-24T06:37:26;99467.16;;;30.89;45.74
63739;BME280;68816;45.558;10.070;2023-07-24T06:39:51;99471.78;;;30.97;46.10
63739;BME280;68816;45.558;10.070;2023-07-24T06:42:17;99478.69;;;30.96;45.43
63739;BME280;68816;45.558;10.070;2023-07-24T06:44:42;99496.19;;;31.21;44.25
63739;BME280;68816;45.558;10.070;2023-07-24T06:47:07;99523.03;;;31.42;44.89
63739;BME280;68816;45.558;10.070;2023-07-24T06:49:33;99555.41;;;31.54;44.97
63739;BME280;68816;45.558;10.070;2023-07-24T06:51:58;99580.72;;;31.22;45.92
63739;BME280;68816;45.558;10.070;2023-07-24T06:54:24;99593.59;;;30.86;45.21
63739;BME280;68816;45.558;10.070;2023-07-24T06:56:49;99607.25;;;30.50;46.20
63739;BME280;68816;45.558;10.070;2023-07-24T06:59:15;99638.91;;;30.65;46.00
63739;BME280;68816;45.558;10.070;2023-07-24T07:01:40;99631.94;;;30.62;47.36
63739;BME280;68816;45.558;10.070;2023-07-24T07:04:05;99620.84;;;30.38;47.66
63739;BME280;68816;45.558;10.070;2023-07-24T07:06:31;99599.94;;;30.53;47.77
63739;BME280;68816;45.558;10.070;2023-07-24T07:08:56;99464.22;;;30.55;50.06
63739;BME280;68816;45.558;10.070;2023-07-24T07:11:22;99336.63;;;30.59;52.45
63739;BME280;68816;45.558;10.070;2023-07-24T07:13:47;99348.84;;;30.56;51.42
63739;BME280;68816;45.558;10.070;2023-07-24T07:16:13;99392.69;;;30.45;52.66
63739;BME280;68816;45.558;10.070;2023-07-24T07:18:38;99412.06;;;30.58;51.82
63739;BME280;68816;45.558;10.070;2023-07-24T07:21:04;99421.50;;;30.63;50.86
63739;BME280;68816;45.558;10.070;2023-07-24T07:23:29;99427.88;;;31.09;50.42
63739;BME280;68816;45.558;10.070;2023-07-24T07:25:54;99430.00;;;31.49;49.41
63739;BME280;68816;45.558;10.070;2023-07-24T07:28:20;99430.75;;;31.79;49.05
63739;BME280;68816;45.558;10.070;2023-07-24T07:30:46;99427.25;;;32.00;47.69
63739;BME280;68816;45.558;10.070;2023-07-24T07:33:11;99444.63;;;32.17;47.05
63739;BME280;68816;45.558;10.070;2023-07-24T07:35:37;99430.59;;;32.05;46.45
63739;BME280;68816;45.558;10.070;2023-07-24T07:38:03;99428.84;;;31.94;45.46
63739;BME280;68816;45.558;10.070;2023-07-24T07:40:29;99419.88;;;31.95;45.87
63739;BME280;68816;45.558;10.070;2023-07-24T07:42:55;99404.34;;;31.96;44.04
63739;BME280;68816;45.558;10.070;2023-07-24T07:45:21;99383.75;;;32.20;44.16
63739;BME280;68816;45.558;10.070;2023-07-24T07:47:47;99358.16;;;32.49;43.63
63739;BME280;68816;45.558;10.070;2023-07-24T07:50:13;99336.09;;;32.56;43.45
63739;BME280;68816;45.558;10.070;2023-07-24T07:52:38;99359.84;;;32.57;44.75
63739;BME280;68816;45.558;10.070;2023-07-24T07:55:04;99412.75;;;31.41;49.60
63739;BME280;68816;45.558;10.070;2023-07-24T07:57:36;99576.34;;;30.79;52.70
63739;BME280;68816;45.558;10.070;2023-07-24T08:00:03;99655.84;;;30.35;54.79
63739;BME280;68816;45.558;10.070;2023-07-24T08:02:29;99525.66;;;30.27;54.72
63739;BME280;68816;45.558;10.070;2023-07-24T08:04:55;99426.69;;;30.83;53.06
63739;BME280;68816;45.558;10.070;2023-07-24T08:07:21;99447.47;;;30.80;53.04
63739;BME280;68816;45.558;10.070;2023-07-24T08:09:46;99487.03;;;30.82;53.07
63739;BME280;68816;45.558;10.070;2023-07-24T08:12:12;99467.28;;;30.70;52.21
63739;BME280;68816;45.558;10.070;2023-07-24T08:14:37;99466.88;;;30.97;53.05
63739;BME280;68816;45.558;10.070;2023-07-24T08:17:03;99471.34;;;31.25;51.80
63739;BME280;68816;45.558;10.070;2023-07-24T08:19:28;99481.94;;;31.24;51.53
63739;BME280;68816;45.558;10.070;2023-07-24T08:21:54;99471.94;;;31.74;49.20
63739;BME280;68816;45.558;10.070;2023-07-24T08:24:20;99488.59;;;32.02;49.34
63739;BME280;68816;45.558;10.070;2023-07-24T08:26:45;99490.72;;;31.38;48.54
63739;BME280;68816;45.558;10.070;2023-07-24T08:29:11;99493.31;;;31.84;48.80
63739;BME280;68816;45.558;10.070;2023-07-24T08:31:36;99504.75;;;31.84;48.12
63739;BME280;68816;45.558;10.070;2023-07-24T08:34:01;99496.94;;;31.48;50.15
63739;BME280;68816;45.558;10.070;2023-07-24T08:36:27;99492.44;;;31.47;46.91
63739;BME280;68816;45.558;10.070;2023-07-24T08:38:52;99487.25;;;31.93;45.63
63739;BME280;68816;45.558;10.070;2023-07-24T08:41:18;99506.44;;;32.26;43.16
63739;BME280;68816;45.558;10.070;2023-07-24T08:43:43;99546.25;;;32.45;42.83
63739;BME280;68816;45.558;10.070;2023-07-24T08:46:09;99619.41;;;32.05;44.04
63739;BME280;68816;45.558;10.070;2023-07-24T08:48:37;99740.72;;;31.97;44.76
63739;BME280;68816;45.558;10.070;2023-07-24T08:51:05;99775.06;;;31.97;44.50
63739;BME280;68816;45.558;10.070;2023-07-24T08:53:36;99712.13;;;31.71;44.00
63739;BME280;68816;45.558;10.070;2023-07-24T08:56:03;99619.31;;;31.98;46.08
63739;BME280;68816;45.558;10.070;2023-07-24T08:58:29;99605.78;;;32.25;44.21
63739;BME280;68816;45.558;10.070;2023-07-24T09:00:58;99618.00;;;32.22;46.35
63739;BME280;68816;45.558;10.070;2023-07-24T09:03:24;99603.56;;;32.48;44.88
63739;BME280;68816;45.558;10.070;2023-07-24T09:05:50;99570.50;;;32.54;44.12
63739;BME280;68816;45.558;10.070;2023-07-24T09:08:15;99541.66;;;32.33;44.25
63739;BME280;68816;45.558;10.070;2023-07-24T09:10:41;99529.44;;;32.36;43.88
63739;BME280;68816;45.558;10.070;2023-07-24T09:13:07;99528.13;;;32.71;44.99
63739;BME280;68816;45.558;10.070;2023-07-24T09:15:40;99509.13;;;33.07;43.23
63739;BME280;68816;45.558;10.070;2023-07-24T09:18:05;99501.53;;;33.39;41.42
63739;BME280;68816;45.558;10.070;2023-07-24T09:20:41;99497.41;;;33.29;38.10
63739;BME280;68816;45.558;10.070;2023-07-24T09:23:08;99514.72;;;33.54;39.48
63739;BME280;68816;45.558;10.070;2023-07-24T09:25:38;99534.06;;;33.75;38.66
63739;BME280;68816;45.558;10.070;2023-07-24T09:28:14;99548.00;;;33.69;38.43
63739;BME280;68816;45.558;10.070;2023-07-24T09:30:41;99548.00;;;33.69;37.87
63739;BME280;68816;45.558;10.070;2023-07-24T09:33:07;99526.63;;;33.63;36.41
63739;BME280;68816;45.558;10.070;2023-07-24T09:35:34;99518.91;;;33.74;37.53
63739;BME280;68816;45.558;10.070;2023-07-24T09:40:46;99528.28;;;33.64;35.45
63739;BME280;68816;45.558;10.070;2023-07-24T09:43:16;99526.91;;;33.30;37.68
63739;BME280;68816;45.558;10.070;2023-07-24T09:45:43;99524.00;;;33.26;36.94
63739;BME280;68816;45.558;10.070;2023-07-24T09:48:12;99511.97;;;33.83;37.23
63739;BME280;68816;45.558;10.070;2023-07-24T09:50:43;99507.06;;;33.90;38.46
63739;BME280;68816;45.558;10.070;2023-07-24T09:53:17;99486.47;;;33.60;38.44
63739;BME280;68816;45.558;10.070;2023-07-24T09:56:08;99479.44;;;33.50;39.24
63739;BME280;68816;45.558;10.070;2023-07-24T09:58:35;99474.22;;;33.70;40.01
63739;BME280;68816;45.558;10.070;2023-07-24T10:01:07;99457.38;;;33.58;39.32
63739;BME280;68816;45.558;10.070;2023-07-24T10:03:49;99466.28;;;33.31;39.97
63739;BME280;68816;45.558;10.070;2023-07-24T10:06:16;99465.09;;;33.39;38.94
63739;BME280;68816;45.558;10.070;2023-07-24T10:08:42;99485.53;;;33.34;39.55
63739;BME280;68816;45.558;10.070;2023-07-24T10:11:08;99478.16;;;33.33;40.80
63739;BME280;68816;45.558;10.070;2023-07-24T10:13:35;99464.25;;;33.39;41.41
63739;BME280;68816;45.558;10.070;2023-07-24T10:16:02;99445.50;;;32.80;42.82
63739;BME280;68816;45.558;10.070;2023-07-24T10:18:30;99421.81;;;32.86;42.72
63739;BME280;68816;45.558;10.070;2023-07-24T10:21:08;99393.50;;;32.74;42.67
63739;BME280;68816;45.558;10.070;2023-07-24T10:23:34;99369.63;;;32.52;42.63
63739;BME280;68816;45.558;10.070;2023-07-24T10:26:04;99350.41;;;32.53;41.00
63739;BME280;68816;45.558;10.070;2023-07-24T10:28:32;99336.97;;;32.64;41.13
63739;BME280;68816;45.558;10.070;2023-07-24T10:30:58;99341.88;;;32.60;40.86
63739;BME280;68816;45.558;10.070;2023-07-24T10:33:23;99343.72;;;33.03;42.67
63739;BME280;68816;45.558;10.070;2023-07-24T10:36:04;99327.31;;;32.93;42.04
63739;BME280;68816;45.558;10.070;2023-07-24T10:38:42;99332.75;;;33.27;40.97
63739;BME280;68816;45.558;10.070;2023-07-24T10:41:09;99347.97;;;33.49;40.31
63739;BME280;68816;45.558;10.070;2023-07-24T10:43:45;99378.28;;;33.67;40.85
63739;BME280;68816;45.558;10.070;2023-07-24T10:46:11;99403.91;;;33.11;38.72
63739;BME280;68816;45.558;10.070;2023-07-24T10:48:37;99428.31;;;32.73;38.40
63739;BME280;68816;45.558;10.070;2023-07-24T10:51:07;99431.16;;;32.73;39.19
63739;BME280;68816;45.558;10.070;2023-07-24T10:53:37;99411.13;;;32.80;39.79
63739;BME280;68816;45.558;10.070;2023-07-24T10:56:04;99385.34;;;32.76;40.13
63739;BME280;68816;45.558;10.070;2023-07-24T10:58:31;99361.47;;;32.58;41.08
63739;BME280;68816;45.558;10.070;2023-07-24T11:00:56;99370.13;;;32.10;40.13
63739;BME280;68816;45.558;10.070;2023-07-24T11:03:23;99409.19;;;31.52;42.04
63739;BME280;68816;45.558;10.070;2023-07-24T11:05:49;99411.63;;;31.16;42.18
63739;BME280;68816;45.558;10.070;2023-07-24T11:08:17;99414.91;;;30.88;43.13
63739;BME280;68816;45.558;10.070;2023-07-24T11:13:16;99376.69;;;30.67;43.03
63739;BME280;68816;45.558;10.070;2023-07-24T11:15:43;99367.81;;;30.75;43.68
63739;BME280;68816;45.558;10.070;2023-07-24T11:18:08;99396.91;;;30.54;43.73
63739;BME280;68816;45.558;10.070;2023-07-24T11:20:38;99424.97;;;30.49;44.98
63739;BME280;68816;45.558;10.070;2023-07-24T11:23:08;99427.97;;;30.59;47.14
63739;BME280;68816;45.558;10.070;2023-07-24T11:25:33;99419.13;;;30.42;47.10
63739;BME280;68816;45.558;10.070;2023-07-24T11:27:59;99415.91;;;30.47;46.92
63739;BME280;68816;45.558;10.070;2023-07-24T11:30:25;99376.72;;;30.70;46.87
63739;BME280;68816;45.558;10.070;2023-07-24T11:32:51;99332.53;;;30.90;47.13
63739;BME280;68816;45.558;10.070;2023-07-24T11:35:17;99323.59;;;30.92;47.15
63739;BME280;68816;45.558;10.070;2023-07-24T11:37:42;99362.81;;;30.65;45.39
63739;BME280;68816;45.558;10.070;2023-07-24T11:40:08;99322.91;;;30.69;46.11
63739;BME280;68816;45.558;10.070;2023-07-24T11:42:48;99307.75;;;30.98;45.64
63739;BME280;68816;45.558;10.070;2023-07-24T11:45:14;99289.13;;;31.11;45.88
63739;BME280;68816;45.558;10.070;2023-07-24T11:47:50;99282.13;;;31.05;43.80
63739;BME280;68816;45.558;10.070;2023-07-24T11:50:16;99261.66;;;31.40;45.48
63739;BME280;68816;45.558;10.070;2023-07-24T11:52:49;99249.25;;;31.62;45.05
63739;BME280;68816;45.558;10.070;2023-07-24T11:55:17;99220.22;;;31.64;44.90
63739;BME280;68816;45.558;10.070;2023-07-24T11:57:43;99197.09;;;31.83;44.08
63739;BME280;68816;45.558;10.070;2023-07-24T12:00:22;99213.09;;;31.95;44.40
63739;BME280;68816;45.558;10.070;2023-07-24T12:02:48;99208.25;;;32.02;44.05
63739;BME280;68816;45.558;10.070;2023-07-24T12:05:13;99200.06;;;32.04;43.35
63739;BME280;68816;45.558;10.070;2023-07-24T12:07:39;99176.38;;;32.07;44.11
63739;BME280;68816;45.558;10.070;2023-07-24T12:10:05;99148.22;;;32.16;43.95
63739;BME280;68816;45.558;10.070;2023-07-24T12:15:03;99041.88;;;32.04;44.46
63739;BME280;68816;45.558;10.070;2023-07-24T12:17:29;98965.91;;;32.03;44.50
63739;BME280;68816;45.558;10.070;2023-07-24T12:19:54;98937.66;;;31.84;45.18
63739;BME280;68816;45.558;10.070;2023-07-24T12:22:20;98969.47;;;31.75;46.02
63739;BME280;68816;45.558;10.070;2023-07-24T12:24:45;99035.16;;;31.57;46.42
63739;BME280;68816;45.558;10.070;2023-07-24T12:27:11;99048.97;;;31.41;47.16
63739;BME280;68816;45.558;10.070;2023-07-24T12:29:36;99111.63;;;31.09;48.49
63739;BME280;68816;45.558;10.070;2023-07-24T12:32:02;99252.69;;;30.64;50.00
63739;BME280;68816;45.558;10.070;2023-07-24T12:34:27;99444.19;;;30.29;51.67
63739;BME280;68816;45.558;10.070;2023-07-24T12:36:52;99554.78;;;29.55;49.55
63739;BME280;68816;45.558;10.070;2023-07-24T12:39:19;99667.31;;;28.95;48.59
63739;BME280;68816;45.558;10.070;2023-07-24T12:41:45;99741.56;;;26.48;64.71
63739;BME280;68816;45.558;10.070;2023-07-24T12:44:10;99662.97;;;24.10;87.19
63739;BME280;68816;45.558;10.070;2023-07-24T12:46:36;99654.84;;;24.64;70.44
63739;BME280;68816;45.558;10.070;2023-07-24T12:49:01;99690.47;;;24.57;68.32
63739;BME280;68816;45.558;10.070;2023-07-24T12:51:27;99609.72;;;25.06;66.88
63739;BME280;68816;45.558;10.070;2023-07-24T12:53:52;99514.03;;;25.61;62.90
63739;BME280;68816;45.558;10.070;2023-07-24T12:56:18;99494.66;;;26.21;62.56